Coon Rapids, Minnesota
Current Conditions -  °F | °C
As of 8:45 PM on Friday 21 Nov 2014 (Local Time) from KANE Reporting Station
Overcast Overcast  
Wind Chill: 21°   Ceiling: 15000
Heat Index: 30°   Visibility: 10mi
Dew Point: 25°   Wind: 12mph
Humidity: 80%   Direction: 170°S
Pressure: 29.89"   Gusts: NA
Location:  45.17°N, 93.3°W
Report Text: KANE 220245Z 17010KT 10SM OVC150 M01/M04 A2989
Loading
Personal Weather Stations






























Interactive Weather Map New forecast layout! Learn more

10-Day Weather Forecast

Advertisements
Track Severe Weather on mobile